KSHD/SHD METAR and TAF weather

Enter ICAO airport designator
Station Type Date Time Source
KSHD METAR 2022/01/26 13:55 UTC NOAA

KSHD 261355Z AUTO 00000KT 10SM CLR M08/M10 A3035 RMK AO2 T10761105


Station Type Date Time Source
KSHD Decoded METAR 2022/01/26 13:55 UTC NOAA

Staunton / Shenandoah, VA, United States (KSHD) 38-16N 078-54W
Jan 26, 2022 - 08:55 AM EST / 2022.01.26 1355 UTC
Wind: Calm:0
Visibility: 10 mile(s):0
Sky conditions: clear
Temperature: 18.3 F (-7.6 C)
Dew Point: 13.1 F (-10.5 C)
Relative Humidity: 79%
Pressure (altimeter): 30.35 in. Hg (1027 hPa)
ob: KSHD 261355Z AUTO 00000KT 10SM CLR M08/M10 A3035 RMK AO2 T10761105
cycle: 14

Station Type Date Time Source
KSHD TAF UTC NOAA

Error!

Example: see airport list